sensor_id;sensor_type;location;lat;lon;timestamp;P1;durP1;ratioP1;P2;durP2;ratioP2
80245;SDS011;69558;39.208;-77.226;2024-01-06T00:01:49;2.35;;;1.55;;
80245;SDS011;69558;39.208;-77.226;2024-01-06T00:04:15;4.10;;;3.33;;
80245;SDS011;69558;39.208;-77.226;2024-01-06T00:06:41;3.85;;;2.83;;
80245;SDS011;69558;39.208;-77.226;2024-01-06T00:09:07;4.40;;;2.75;;
80245;SDS011;69558;39.208;-77.226;2024-01-06T00:11:33;4.03;;;1.85;;
80245;SDS011;69558;39.208;-77.226;2024-01-06T00:13:59;4.20;;;2.95;;
80245;SDS011;69558;39.208;-77.226;2024-01-06T00:16:25;4.10;;;2.40;;
80245;SDS011;69558;39.208;-77.226;2024-01-06T00:18:50;3.67;;;2.60;;
80245;SDS011;69558;39.208;-77.226;2024-01-06T00:21:16;3.72;;;2.30;;
80245;SDS011;69558;39.208;-77.226;2024-01-06T00:23:42;3.92;;;3.03;;
80245;SDS011;69558;39.208;-77.226;2024-01-06T00:26:09;4.05;;;2.75;;
80245;SDS011;69558;39.208;-77.226;2024-01-06T00:28:35;3.65;;;1.27;;
80245;SDS011;69558;39.208;-77.226;2024-01-06T00:31:01;3.60;;;2.58;;
80245;SDS011;69558;39.208;-77.226;2024-01-06T00:33:27;4.53;;;2.60;;
80245;SDS011;69558;39.208;-77.226;2024-01-06T00:35:54;3.30;;;2.08;;
80245;SDS011;69558;39.208;-77.226;2024-01-06T00:38:21;3.53;;;2.40;;
80245;SDS011;69558;39.208;-77.226;2024-01-06T00:40:46;3.72;;;2.90;;
80245;SDS011;69558;39.208;-77.226;2024-01-06T00:43:13;3.05;;;2.70;;
80245;SDS011;69558;39.208;-77.226;2024-01-06T00:45:39;2.80;;;1.45;;
80245;SDS011;69558;39.208;-77.226;2024-01-06T00:48:05;3.03;;;2.60;;
80245;SDS011;69558;39.208;-77.226;2024-01-06T00:50:31;3.83;;;2.80;;
80245;SDS011;69558;39.208;-77.226;2024-01-06T00:52:56;2.58;;;2.05;;
80245;SDS011;69558;39.208;-77.226;2024-01-06T00:55:23;3.20;;;2.75;;
80245;SDS011;69558;39.208;-77.226;2024-01-06T00:57:50;4.20;;;2.75;;
80245;SDS011;69558;39.208;-77.226;2024-01-06T01:00:16;3.20;;;2.22;;
80245;SDS011;69558;39.208;-77.226;2024-01-06T01:02:42;3.00;;;2.15;;
80245;SDS011;69558;39.208;-77.226;2024-01-06T01:05:08;3.00;;;1.95;;
80245;SDS011;69558;39.208;-77.226;2024-01-06T01:07:35;2.45;;;1.85;;
80245;SDS011;69558;39.208;-77.226;2024-01-06T01:10:01;3.65;;;2.47;;
80245;SDS011;69558;39.208;-77.226;2024-01-06T01:12:28;2.67;;;2.33;;
80245;SDS011;69558;39.208;-77.226;2024-01-06T01:14:54;3.53;;;2.33;;
80245;SDS011;69558;39.208;-77.226;2024-01-06T01:17:19;2.25;;;2.05;;
80245;SDS011;69558;39.208;-77.226;2024-01-06T01:19:45;1.52;;;1.20;;
80245;SDS011;69558;39.208;-77.226;2024-01-06T01:22:12;3.00;;;2.20;;
80245;SDS011;69558;39.208;-77.226;2024-01-06T01:24:38;2.80;;;2.30;;
80245;SDS011;69558;39.208;-77.226;2024-01-06T01:27:04;2.30;;;1.20;;
80245;SDS011;69558;39.208;-77.226;2024-01-06T01:29:30;2.65;;;2.22;;
80245;SDS011;69558;39.208;-77.226;2024-01-06T01:31:56;3.53;;;2.33;;
80245;SDS011;69558;39.208;-77.226;2024-01-06T01:34:22;3.05;;;2.50;;
80245;SDS011;69558;39.208;-77.226;2024-01-06T01:36:47;2.30;;;1.13;;
80245;SDS011;69558;39.208;-77.226;2024-01-06T01:39:13;3.05;;;2.25;;
80245;SDS011;69558;39.208;-77.226;2024-01-06T01:41:39;3.67;;;2.38;;
80245;SDS011;69558;39.208;-77.226;2024-01-06T01:44:06;3.47;;;2.38;;
80245;SDS011;69558;39.208;-77.226;2024-01-06T01:46:32;4.93;;;3.00;;
80245;SDS011;69558;39.208;-77.226;2024-01-06T01:48:59;3.17;;;2.20;;
80245;SDS011;69558;39.208;-77.226;2024-01-06T01:51:28;3.13;;;1.75;;
80245;SDS011;69558;39.208;-77.226;2024-01-06T01:53:59;3.70;;;2.58;;
80245;SDS011;69558;39.208;-77.226;2024-01-06T01:56:28;3.28;;;2.08;;
80245;SDS011;69558;39.208;-77.226;2024-01-06T01:59:00;3.97;;;2.88;;
80245;SDS011;69558;39.208;-77.226;2024-01-06T02:01:28;3.60;;;2.40;;
80245;SDS011;69558;39.208;-77.226;2024-01-06T02:03:54;3.83;;;2.60;;
80245;SDS011;69558;39.208;-77.226;2024-01-06T02:06:20;3.38;;;2.75;;
80245;SDS011;69558;39.208;-77.226;2024-01-06T02:08:46;3.30;;;2.38;;
80245;SDS011;69558;39.208;-77.226;2024-01-06T02:11:12;2.60;;;1.40;;
80245;SDS011;69558;39.208;-77.226;2024-01-06T02:13:38;3.85;;;2.90;;
80245;SDS011;69558;39.208;-77.226;2024-01-06T02:16:04;3.70;;;2.75;;
80245;SDS011;69558;39.208;-77.226;2024-01-06T02:18:30;3.00;;;1.52;;
80245;SDS011;69558;39.208;-77.226;2024-01-06T02:20:58;3.05;;;2.47;;
80245;SDS011;69558;39.208;-77.226;2024-01-06T02:23:28;3.88;;;2.75;;
80245;SDS011;69558;39.208;-77.226;2024-01-06T02:25:54;4.97;;;3.08;;
80245;SDS011;69558;39.208;-77.226;2024-01-06T02:28:21;2.88;;;1.33;;
80245;SDS011;69558;39.208;-77.226;2024-01-06T02:30:47;3.95;;;2.63;;
80245;SDS011;69558;39.208;-77.226;2024-01-06T02:33:12;3.50;;;2.20;;
80245;SDS011;69558;39.208;-77.226;2024-01-06T02:35:39;3.95;;;2.75;;
80245;SDS011;69558;39.208;-77.226;2024-01-06T02:38:05;2.85;;;2.25;;
80245;SDS011;69558;39.208;-77.226;2024-01-06T02:40:32;3.75;;;2.58;;
80245;SDS011;69558;39.208;-77.226;2024-01-06T02:42:58;3.97;;;2.90;;
80245;SDS011;69558;39.208;-77.226;2024-01-06T02:45:24;4.80;;;3.08;;
80245;SDS011;69558;39.208;-77.226;2024-01-06T02:47:50;4.15;;;2.85;;
80245;SDS011;69558;39.208;-77.226;2024-01-06T02:50:16;4.53;;;3.28;;
80245;SDS011;69558;39.208;-77.226;2024-01-06T02:52:42;4.80;;;3.28;;
80245;SDS011;69558;39.208;-77.226;2024-01-06T02:55:09;3.42;;;2.65;;
80245;SDS011;69558;39.208;-77.226;2024-01-06T02:57:36;3.75;;;2.95;;
80245;SDS011;69558;39.208;-77.226;2024-01-06T03:00:02;3.33;;;1.90;;
80245;SDS011;69558;39.208;-77.226;2024-01-06T03:02:29;3.63;;;1.58;;
80245;SDS011;69558;39.208;-77.226;2024-01-06T03:04:54;4.07;;;2.95;;
80245;SDS011;69558;39.208;-77.226;2024-01-06T03:07:21;4.10;;;3.38;;
80245;SDS011;69558;39.208;-77.226;2024-01-06T03:09:47;3.60;;;2.80;;
80245;SDS011;69558;39.208;-77.226;2024-01-06T03:12:13;3.95;;;2.92;;
80245;SDS011;69558;39.208;-77.226;2024-01-06T03:14:39;3.97;;;3.22;;
80245;SDS011;69558;39.208;-77.226;2024-01-06T03:17:05;4.78;;;3.05;;
80245;SDS011;69558;39.208;-77.226;2024-01-06T03:19:31;4.20;;;2.75;;
80245;SDS011;69558;39.208;-77.226;2024-01-06T03:21:57;3.78;;;2.58;;
80245;SDS011;69558;39.208;-77.226;2024-01-06T03:24:24;4.00;;;3.00;;
80245;SDS011;69558;39.208;-77.226;2024-01-06T03:26:53;3.92;;;3.03;;
80245;SDS011;69558;39.208;-77.226;2024-01-06T03:29:19;5.07;;;3.38;;
80245;SDS011;69558;39.208;-77.226;2024-01-06T03:31:45;5.10;;;3.05;;
80245;SDS011;69558;39.208;-77.226;2024-01-06T03:34:12;3.40;;;2.67;;
80245;SDS011;69558;39.208;-77.226;2024-01-06T03:36:38;4.38;;;3.03;;
80245;SDS011;69558;39.208;-77.226;2024-01-06T03:39:04;3.83;;;1.80;;
80245;SDS011;69558;39.208;-77.226;2024-01-06T03:41:31;3.83;;;3.15;;
80245;SDS011;69558;39.208;-77.226;2024-01-06T03:43:57;4.55;;;3.03;;
80245;SDS011;69558;39.208;-77.226;2024-01-06T03:46:24;3.35;;;2.05;;
80245;SDS011;69558;39.208;-77.226;2024-01-06T03:48:50;4.80;;;3.42;;
80245;SDS011;69558;39.208;-77.226;2024-01-06T03:51:16;5.05;;;3.97;;
80245;SDS011;69558;39.208;-77.226;2024-01-06T03:53:42;4.90;;;2.95;;
80245;SDS011;69558;39.208;-77.226;2024-01-06T03:56:08;5.18;;;3.38;;
80245;SDS011;69558;39.208;-77.226;2024-01-06T03:58:34;4.57;;;3.50;;
80245;SDS011;69558;39.208;-77.226;2024-01-06T04:01:00;4.65;;;2.22;;
80245;SDS011;69558;39.208;-77.226;2024-01-06T04:03:26;5.00;;;3.20;;
80245;SDS011;69558;39.208;-77.226;2024-01-06T04:05:52;5.35;;;3.63;;
80245;SDS011;69558;39.208;-77.226;2024-01-06T04:08:18;4.90;;;2.58;;
80245;SDS011;69558;39.208;-77.226;2024-01-06T04:10:44;4.40;;;2.70;;
80245;SDS011;69558;39.208;-77.226;2024-01-06T04:13:11;5.20;;;3.97;;
80245;SDS011;69558;39.208;-77.226;2024-01-06T04:15:37;4.95;;;3.30;;
80245;SDS011;69558;39.208;-77.226;2024-01-06T04:18:03;4.90;;;3.45;;
80245;SDS011;69558;39.208;-77.226;2024-01-06T04:20:31;5.65;;;2.83;;
80245;SDS011;69558;39.208;-77.226;2024-01-06T04:22:57;6.43;;;4.45;;
80245;SDS011;69558;39.208;-77.226;2024-01-06T04:25:24;4.75;;;3.78;;
80245;SDS011;69558;39.208;-77.226;2024-01-06T04:27:50;4.78;;;3.85;;
80245;SDS011;69558;39.208;-77.226;2024-01-06T04:30:16;4.32;;;2.35;;
80245;SDS011;69558;39.208;-77.226;2024-01-06T04:32:42;5.75;;;4.63;;
80245;SDS011;69558;39.208;-77.226;2024-01-06T04:35:09;5.65;;;4.35;;
80245;SDS011;69558;39.208;-77.226;2024-01-06T04:37:35;4.75;;;3.83;;
80245;SDS011;69558;39.208;-77.226;2024-01-06T04:40:01;4.47;;;2.65;;
80245;SDS011;69558;39.208;-77.226;2024-01-06T04:42:28;5.10;;;3.85;;
80245;SDS011;69558;39.208;-77.226;2024-01-06T04:44:54;5.15;;;4.15;;
80245;SDS011;69558;39.208;-77.226;2024-01-06T04:47:19;4.35;;;2.25;;
80245;SDS011;69558;39.208;-77.226;2024-01-06T04:49:45;4.82;;;3.95;;
80245;SDS011;69558;39.208;-77.226;2024-01-06T04:52:11;5.07;;;3.97;;
80245;SDS011;69558;39.208;-77.226;2024-01-06T04:54:37;5.55;;;3.20;;
80245;SDS011;69558;39.208;-77.226;2024-01-06T04:57:03;4.93;;;3.80;;
80245;SDS011;69558;39.208;-77.226;2024-01-06T04:59:29;5.13;;;4.05;;
80245;SDS011;69558;39.208;-77.226;2024-01-06T05:01:56;5.20;;;2.97;;
80245;SDS011;69558;39.208;-77.226;2024-01-06T05:04:23;6.18;;;4.38;;
80245;SDS011;69558;39.208;-77.226;2024-01-06T05:06:53;5.22;;;3.28;;
80245;SDS011;69558;39.208;-77.226;2024-01-06T05:09:20;5.03;;;3.70;;
80245;SDS011;69558;39.208;-77.226;2024-01-06T05:11:45;6.47;;;3.90;;
80245;SDS011;69558;39.208;-77.226;2024-01-06T05:14:11;5.65;;;4.03;;
80245;SDS011;69558;39.208;-77.226;2024-01-06T05:16:37;5.43;;;3.40;;
80245;SDS011;69558;39.208;-77.226;2024-01-06T05:19:03;5.00;;;3.75;;
80245;SDS011;69558;39.208;-77.226;2024-01-06T05:21:29;5.20;;;2.17;;
80245;SDS011;69558;39.208;-77.226;2024-01-06T05:23:55;4.18;;;3.50;;
80245;SDS011;69558;39.208;-77.226;2024-01-06T05:26:21;4.05;;;2.58;;
80245;SDS011;69558;39.208;-77.226;2024-01-06T05:28:47;4.90;;;2.40;;
80245;SDS011;69558;39.208;-77.226;2024-01-06T05:31:13;4.65;;;3.55;;
80245;SDS011;69558;39.208;-77.226;2024-01-06T05:33:39;4.32;;;3.15;;
80245;SDS011;69558;39.208;-77.226;2024-01-06T05:36:05;3.97;;;2.03;;
80245;SDS011;69558;39.208;-77.226;2024-01-06T05:38:31;4.88;;;3.20;;
80245;SDS011;69558;39.208;-77.226;2024-01-06T05:40:56;5.50;;;3.47;;
80245;SDS011;69558;39.208;-77.226;2024-01-06T05:43:23;5.65;;;3.30;;
80245;SDS011;69558;39.208;-77.226;2024-01-06T05:45:49;5.20;;;3.75;;
80245;SDS011;69558;39.208;-77.226;2024-01-06T05:48:16;4.97;;;2.53;;
80245;SDS011;69558;39.208;-77.226;2024-01-06T05:50:42;4.93;;;4.03;;
80245;SDS011;69558;39.208;-77.226;2024-01-06T05:53:08;5.00;;;3.13;;
80245;SDS011;69558;39.208;-77.226;2024-01-06T05:55:34;6.05;;;3.92;;
80245;SDS011;69558;39.208;-77.226;2024-01-06T05:58:00;5.93;;;2.88;;
80245;SDS011;69558;39.208;-77.226;2024-01-06T06:00:26;5.45;;;4.00;;
80245;SDS011;69558;39.208;-77.226;2024-01-06T06:02:52;6.28;;;3.83;;
80245;SDS011;69558;39.208;-77.226;2024-01-06T06:05:18;5.53;;;4.15;;
80245;SDS011;69558;39.208;-77.226;2024-01-06T06:07:45;5.28;;;4.35;;
80245;SDS011;69558;39.208;-77.226;2024-01-06T06:10:11;5.07;;;4.05;;
80245;SDS011;69558;39.208;-77.226;2024-01-06T06:12:37;5.22;;;4.05;;
80245;SDS011;69558;39.208;-77.226;2024-01-06T06:15:04;5.18;;;3.78;;
80245;SDS011;69558;39.208;-77.226;2024-01-06T06:17:31;5.85;;;3.72;;
80245;SDS011;69558;39.208;-77.226;2024-01-06T06:19:58;5.05;;;3.90;;
80245;SDS011;69558;39.208;-77.226;2024-01-06T06:22:24;6.03;;;4.10;;
80245;SDS011;69558;39.208;-77.226;2024-01-06T06:25:00;5.30;;;3.92;;
80245;SDS011;69558;39.208;-77.226;2024-01-06T06:27:26;5.40;;;3.72;;
80245;SDS011;69558;39.208;-77.226;2024-01-06T06:29:52;7.63;;;4.18;;
80245;SDS011;69558;39.208;-77.226;2024-01-06T06:32:19;5.57;;;4.05;;
80245;SDS011;69558;39.208;-77.226;2024-01-06T06:34:45;6.05;;;4.60;;
80245;SDS011;69558;39.208;-77.226;2024-01-06T06:37:11;5.80;;;4.00;;
80245;SDS011;69558;39.208;-77.226;2024-01-06T06:39:37;5.25;;;3.17;;
80245;SDS011;69558;39.208;-77.226;2024-01-06T06:42:03;5.35;;;3.90;;
80245;SDS011;69558;39.208;-77.226;2024-01-06T06:44:29;5.47;;;4.00;;
80245;SDS011;69558;39.208;-77.226;2024-01-06T06:46:55;5.28;;;3.78;;
80245;SDS011;69558;39.208;-77.226;2024-01-06T06:49:21;4.82;;;3.63;;
80245;SDS011;69558;39.208;-77.226;2024-01-06T06:51:47;5.60;;;4.15;;
80245;SDS011;69558;39.208;-77.226;2024-01-06T06:54:14;6.90;;;4.28;;
80245;SDS011;69558;39.208;-77.226;2024-01-06T06:56:43;5.75;;;3.85;;
80245;SDS011;69558;39.208;-77.226;2024-01-06T06:59:09;5.95;;;4.90;;
80245;SDS011;69558;39.208;-77.226;2024-01-06T07:01:36;4.65;;;3.60;;
80245;SDS011;69558;39.208;-77.226;2024-01-06T07:04:02;5.53;;;4.63;;
80245;SDS011;69558;39.208;-77.226;2024-01-06T07:06:28;5.80;;;4.78;;
80245;SDS011;69558;39.208;-77.226;2024-01-06T07:08:55;5.22;;;4.13;;
80245;SDS011;69558;39.208;-77.226;2024-01-06T07:11:22;4.97;;;3.15;;
80245;SDS011;69558;39.208;-77.226;2024-01-06T07:13:47;5.60;;;4.28;;
80245;SDS011;69558;39.208;-77.226;2024-01-06T07:16:13;4.70;;;3.72;;
80245;SDS011;69558;39.208;-77.226;2024-01-06T07:18:39;6.93;;;2.92;;
80245;SDS011;69558;39.208;-77.226;2024-01-06T07:21:05;5.32;;;2.70;;
80245;SDS011;69558;39.208;-77.226;2024-01-06T07:23:34;5.97;;;4.53;;
80245;SDS011;69558;39.208;-77.226;2024-01-06T07:26:00;5.28;;;4.07;;
80245;SDS011;69558;39.208;-77.226;2024-01-06T07:28:26;6.40;;;4.45;;
80245;SDS011;69558;39.208;-77.226;2024-01-06T07:30:53;6.15;;;4.18;;
80245;SDS011;69558;39.208;-77.226;2024-01-06T07:33:20;4.47;;;2.63;;
80245;SDS011;69558;39.208;-77.226;2024-01-06T07:35:46;5.85;;;3.17;;
80245;SDS011;69558;39.208;-77.226;2024-01-06T07:38:12;6.05;;;3.42;;
80245;SDS011;69558;39.208;-77.226;2024-01-06T07:40:38;6.00;;;4.07;;
80245;SDS011;69558;39.208;-77.226;2024-01-06T07:43:04;4.80;;;2.80;;
80245;SDS011;69558;39.208;-77.226;2024-01-06T07:45:33;6.85;;;4.88;;
80245;SDS011;69558;39.208;-77.226;2024-01-06T07:47:59;5.72;;;3.20;;
80245;SDS011;69558;39.208;-77.226;2024-01-06T07:50:25;5.45;;;4.57;;
80245;SDS011;69558;39.208;-77.226;2024-01-06T07:52:51;6.57;;;3.50;;
80245;SDS011;69558;39.208;-77.226;2024-01-06T07:55:18;4.70;;;3.17;;
80245;SDS011;69558;39.208;-77.226;2024-01-06T07:57:44;5.40;;;3.05;;
80245;SDS011;69558;39.208;-77.226;2024-01-06T08:00:10;6.15;;;4.38;;
80245;SDS011;69558;39.208;-77.226;2024-01-06T08:02:40;5.82;;;3.90;;
80245;SDS011;69558;39.208;-77.226;2024-01-06T08:05:06;5.63;;;4.07;;
80245;SDS011;69558;39.208;-77.226;2024-01-06T08:07:32;5.32;;;2.95;;
80245;SDS011;69558;39.208;-77.226;2024-01-06T08:09:59;5.57;;;4.28;;
80245;SDS011;69558;39.208;-77.226;2024-01-06T08:12:26;6.80;;;4.85;;
80245;SDS011;69558;39.208;-77.226;2024-01-06T08:14:52;5.55;;;3.15;;
80245;SDS011;69558;39.208;-77.226;2024-01-06T08:17:17;6.97;;;4.68;;
80245;SDS011;69558;39.208;-77.226;2024-01-06T08:19:43;6.53;;;4.63;;
80245;SDS011;69558;39.208;-77.226;2024-01-06T08:22:12;5.57;;;2.78;;
80245;SDS011;69558;39.208;-77.226;2024-01-06T08:24:38;6.88;;;4.95;;
80245;SDS011;69558;39.208;-77.226;2024-01-06T08:27:04;5.50;;;3.28;;
80245;SDS011;69558;39.208;-77.226;2024-01-06T08:29:30;6.38;;;4.60;;
80245;SDS011;69558;39.208;-77.226;2024-01-06T08:31:56;6.82;;;4.25;;
80245;SDS011;69558;39.208;-77.226;2024-01-06T08:34:23;5.47;;;4.65;;
80245;SDS011;69558;39.208;-77.226;2024-01-06T08:36:49;6.78;;;2.95;;
80245;SDS011;69558;39.208;-77.226;2024-01-06T08:39:15;6.22;;;4.57;;
80245;SDS011;69558;39.208;-77.226;2024-01-06T08:41:41;6.32;;;4.10;;
80245;SDS011;69558;39.208;-77.226;2024-01-06T08:44:07;5.95;;;4.55;;
80245;SDS011;69558;39.208;-77.226;2024-01-06T08:46:33;5.53;;;4.40;;
80245;SDS011;69558;39.208;-77.226;2024-01-06T08:48:59;6.78;;;4.50;;
80245;SDS011;69558;39.208;-77.226;2024-01-06T08:51:26;6.35;;;5.00;;
80245;SDS011;69558;39.208;-77.226;2024-01-06T08:53:52;5.45;;;3.38;;
80245;SDS011;69558;39.208;-77.226;2024-01-06T08:56:18;5.38;;;4.43;;
80245;SDS011;69558;39.208;-77.226;2024-01-06T08:58:44;6.90;;;4.63;;
80245;SDS011;69558;39.208;-77.226;2024-01-06T09:01:10;6.30;;;4.68;;
80245;SDS011;69558;39.208;-77.226;2024-01-06T09:03:36;6.05;;;4.32;;
80245;SDS011;69558;39.208;-77.226;2024-01-06T09:06:02;5.43;;;4.15;;
80245;SDS011;69558;39.208;-77.226;2024-01-06T09:08:29;5.68;;;3.58;;
80245;SDS011;69558;39.208;-77.226;2024-01-06T09:10:55;5.53;;;3.40;;
80245;SDS011;69558;39.208;-77.226;2024-01-06T09:13:22;6.32;;;4.47;;
80245;SDS011;69558;39.208;-77.226;2024-01-06T09:15:49;5.50;;;3.67;;
80245;SDS011;69558;39.208;-77.226;2024-01-06T09:18:18;5.40;;;4.43;;
80245;SDS011;69558;39.208;-77.226;2024-01-06T09:20:44;5.85;;;4.47;;
80245;SDS011;69558;39.208;-77.226;2024-01-06T09:23:13;5.82;;;3.95;;
80245;SDS011;69558;39.208;-77.226;2024-01-06T09:25:39;5.70;;;4.05;;
80245;SDS011;69558;39.208;-77.226;2024-01-06T09:28:08;4.82;;;4.00;;
80245;SDS011;69558;39.208;-77.226;2024-01-06T09:30:34;5.10;;;4.00;;
80245;SDS011;69558;39.208;-77.226;2024-01-06T09:33:02;5.60;;;3.75;;
80245;SDS011;69558;39.208;-77.226;2024-01-06T09:35:29;4.65;;;3.40;;
80245;SDS011;69558;39.208;-77.226;2024-01-06T09:37:55;5.88;;;3.95;;
80245;SDS011;69558;39.208;-77.226;2024-01-06T09:40:22;4.10;;;2.22;;
80245;SDS011;69558;39.208;-77.226;2024-01-06T09:42:49;5.32;;;2.40;;
80245;SDS011;69558;39.208;-77.226;2024-01-06T09:45:19;4.10;;;3.35;;
80245;SDS011;69558;39.208;-77.226;2024-01-06T09:47:50;4.60;;;3.28;;
80245;SDS011;69558;39.208;-77.226;2024-01-06T09:50:20;3.63;;;2.10;;
80245;SDS011;69558;39.208;-77.226;2024-01-06T09:52:47;4.50;;;3.47;;
80245;SDS011;69558;39.208;-77.226;2024-01-06T09:55:25;5.20;;;3.92;;
80245;SDS011;69558;39.208;-77.226;2024-01-06T09:57:52;4.30;;;3.03;;
80245;SDS011;69558;39.208;-77.226;2024-01-06T10:00:20;4.22;;;3.28;;
80245;SDS011;69558;39.208;-77.226;2024-01-06T10:02:47;5.03;;;3.85;;
80245;SDS011;69558;39.208;-77.226;2024-01-06T10:05:17;5.95;;;3.85;;
80245;SDS011;69558;39.208;-77.226;2024-01-06T10:07:43;5.18;;;3.10;;
80245;SDS011;69558;39.208;-77.226;2024-01-06T10:10:10;5.28;;;3.50;;
80245;SDS011;69558;39.208;-77.226;2024-01-06T10:12:40;4.45;;;2.25;;
80245;SDS011;69558;39.208;-77.226;2024-01-06T10:15:07;5.63;;;3.83;;
80245;SDS011;69558;39.208;-77.226;2024-01-06T10:17:41;5.22;;;3.80;;
80245;SDS011;69558;39.208;-77.226;2024-01-06T10:20:08;6.25;;;3.92;;
80245;SDS011;69558;39.208;-77.226;2024-01-06T10:22:38;3.65;;;2.08;;
80245;SDS011;69558;39.208;-77.226;2024-01-06T10:25:07;4.75;;;3.90;;
80245;SDS011;69558;39.208;-77.226;2024-01-06T10:27:37;6.03;;;4.30;;
80245;SDS011;69558;39.208;-77.226;2024-01-06T10:30:08;5.88;;;4.47;;
80245;SDS011;69558;39.208;-77.226;2024-01-06T10:32:35;5.68;;;4.50;;
80245;SDS011;69558;39.208;-77.226;2024-01-06T10:35:02;5.85;;;4.13;;
80245;SDS011;69558;39.208;-77.226;2024-01-06T10:37:32;6.07;;;3.95;;
80245;SDS011;69558;39.208;-77.226;2024-01-06T10:40:07;5.72;;;3.85;;
80245;SDS011;69558;39.208;-77.226;2024-01-06T10:42:35;6.47;;;4.60;;
80245;SDS011;69558;39.208;-77.226;2024-01-06T10:45:02;4.55;;;2.20;;
80245;SDS011;69558;39.208;-77.226;2024-01-06T10:47:31;5.95;;;4.30;;
80245;SDS011;69558;39.208;-77.226;2024-01-06T10:50:02;6.68;;;4.30;;
80245;SDS011;69558;39.208;-77.226;2024-01-06T10:52:29;5.03;;;2.30;;
80245;SDS011;69558;39.208;-77.226;2024-01-06T10:54:57;5.97;;;3.78;;
80245;SDS011;69558;39.208;-77.226;2024-01-06T10:57:30;5.95;;;4.43;;
80245;SDS011;69558;39.208;-77.226;2024-01-06T11:00:00;5.55;;;3.72;;
80245;SDS011;69558;39.208;-77.226;2024-01-06T11:02:26;5.90;;;4.18;;
80245;SDS011;69558;39.208;-77.226;2024-01-06T11:04:54;5.72;;;4.20;;
80245;SDS011;69558;39.208;-77.226;2024-01-06T11:07:21;6.00;;;4.13;;
80245;SDS011;69558;39.208;-77.226;2024-01-06T11:09:51;4.45;;;2.63;;
80245;SDS011;69558;39.208;-77.226;2024-01-06T11:12:31;5.07;;;4.10;;
80245;SDS011;69558;39.208;-77.226;2024-01-06T11:15:01;5.82;;;4.07;;
80245;SDS011;69558;39.208;-77.226;2024-01-06T11:20:25;5.95;;;4.55;;
80245;SDS011;69558;39.208;-77.226;2024-01-06T11:22:52;6.25;;;4.18;;
80245;SDS011;69558;39.208;-77.226;2024-01-06T11:25:19;5.70;;;3.00;;
80245;SDS011;69558;39.208;-77.226;2024-01-06T11:27:47;4.55;;;4.00;;
80245;SDS011;69558;39.208;-77.226;2024-01-06T11:30:21;5.47;;;3.40;;
80245;SDS011;69558;39.208;-77.226;2024-01-06T11:32:49;6.28;;;4.45;;
80245;SDS011;69558;39.208;-77.226;2024-01-06T11:35:18;5.07;;;4.22;;
80245;SDS011;69558;39.208;-77.226;2024-01-06T11:45:35;6.22;;;4.00;;
80245;SDS011;69558;39.208;-77.226;2024-01-06T11:48:04;5.28;;;4.07;;
80245;SDS011;69558;39.208;-77.226;2024-01-06T11:53:01;4.63;;;3.80;;
80245;SDS011;69558;39.208;-77.226;2024-01-06T11:55:29;4.85;;;3.45;;
80245;SDS011;69558;39.208;-77.226;2024-01-06T11:57:59;4.43;;;3.38;;
80245;SDS011;69558;39.208;-77.226;2024-01-06T12:00:31;5.13;;;2.72;;
80245;SDS011;69558;39.208;-77.226;2024-01-06T12:03:04;4.63;;;3.72;;
80245;SDS011;69558;39.208;-77.226;2024-01-06T12:05:30;5.15;;;4.07;;
80245;SDS011;69558;39.208;-77.226;2024-01-06T12:07:57;4.63;;;3.15;;
80245;SDS011;69558;39.208;-77.226;2024-01-06T12:10:27;4.38;;;2.10;;
80245;SDS011;69558;39.208;-77.226;2024-01-06T12:15:21;5.72;;;3.58;;
80245;SDS011;69558;39.208;-77.226;2024-01-06T12:17:47;5.45;;;3.88;;
80245;SDS011;69558;39.208;-77.226;2024-01-06T12:20:13;5.97;;;4.10;;
80245;SDS011;69558;39.208;-77.226;2024-01-06T12:22:39;5.45;;;3.70;;
80245;SDS011;69558;39.208;-77.226;2024-01-06T12:25:05;5.20;;;3.72;;
80245;SDS011;69558;39.208;-77.226;2024-01-06T12:27:32;5.28;;;3.92;;
80245;SDS011;69558;39.208;-77.226;2024-01-06T12:29:59;6.65;;;3.88;;
80245;SDS011;69558;39.208;-77.226;2024-01-06T12:32:26;5.32;;;4.00;;
80245;SDS011;69558;39.208;-77.226;2024-01-06T12:34:52;5.30;;;4.10;;
80245;SDS011;69558;39.208;-77.226;2024-01-06T12:37:18;4.75;;;3.30;;
80245;SDS011;69558;39.208;-77.226;2024-01-06T12:39:44;4.70;;;2.63;;
80245;SDS011;69558;39.208;-77.226;2024-01-06T12:42:14;6.03;;;3.85;;
80245;SDS011;69558;39.208;-77.226;2024-01-06T12:44:42;5.15;;;4.40;;
80245;SDS011;69558;39.208;-77.226;2024-01-06T12:47:07;5.50;;;4.18;;
80245;SDS011;69558;39.208;-77.226;2024-01-06T12:49:33;4.82;;;3.80;;
80245;SDS011;69558;39.208;-77.226;2024-01-06T12:51:59;5.68;;;3.65;;
80245;SDS011;69558;39.208;-77.226;2024-01-06T12:54:25;5.63;;;4.13;;
80245;SDS011;69558;39.208;-77.226;2024-01-06T12:56:51;4.10;;;1.92;;
80245;SDS011;69558;39.208;-77.226;2024-01-06T12:59:17;5.47;;;3.83;;
80245;SDS011;69558;39.208;-77.226;2024-01-06T13:01:43;5.45;;;4.28;;
80245;SDS011;69558;39.208;-77.226;2024-01-06T13:04:09;5.07;;;3.75;;
80245;SDS011;69558;39.208;-77.226;2024-01-06T13:06:35;4.85;;;3.28;;
80245;SDS011;69558;39.208;-77.226;2024-01-06T13:09:03;5.50;;;3.90;;
80245;SDS011;69558;39.208;-77.226;2024-01-06T13:11:32;4.72;;;3.53;;
80245;SDS011;69558;39.208;-77.226;2024-01-06T13:14:00;6.05;;;3.92;;
80245;SDS011;69558;39.208;-77.226;2024-01-06T13:16:26;4.68;;;3.38;;
80245;SDS011;69558;39.208;-77.226;2024-01-06T13:18:55;4.68;;;3.22;;
80245;SDS011;69558;39.208;-77.226;2024-01-06T13:21:21;4.85;;;3.40;;
80245;SDS011;69558;39.208;-77.226;2024-01-06T13:23:47;4.50;;;3.25;;
80245;SDS011;69558;39.208;-77.226;2024-01-06T13:26:14;4.88;;;3.10;;
80245;SDS011;69558;39.208;-77.226;2024-01-06T13:28:40;5.03;;;3.55;;
80245;SDS011;69558;39.208;-77.226;2024-01-06T13:31:06;4.30;;;3.60;;
80245;SDS011;69558;39.208;-77.226;2024-01-06T13:33:32;4.32;;;3.38;;
80245;SDS011;69558;39.208;-77.226;2024-01-06T13:36:00;4.22;;;3.55;;
80245;SDS011;69558;39.208;-77.226;2024-01-06T13:38:26;3.50;;;2.17;;
80245;SDS011;69558;39.208;-77.226;2024-01-06T13:40:53;4.00;;;3.05;;
80245;SDS011;69558;39.208;-77.226;2024-01-06T13:43:19;5.00;;;3.38;;
80245;SDS011;69558;39.208;-77.226;2024-01-06T13:45:45;3.55;;;2.08;;
80245;SDS011;69558;39.208;-77.226;2024-01-06T13:48:10;4.18;;;3.65;;
80245;SDS011;69558;39.208;-77.226;2024-01-06T13:50:36;4.80;;;3.47;;
80245;SDS011;69558;39.208;-77.226;2024-01-06T13:53:02;4.25;;;3.08;;
80245;SDS011;69558;39.208;-77.226;2024-01-06T13:55:29;4.25;;;3.22;;
80245;SDS011;69558;39.208;-77.226;2024-01-06T13:57:55;4.57;;;3.70;;
80245;SDS011;69558;39.208;-77.226;2024-01-06T14:00:21;4.53;;;3.00;;
80245;SDS011;69558;39.208;-77.226;2024-01-06T14:02:47;4.97;;;3.17;;
80245;SDS011;69558;39.208;-77.226;2024-01-06T14:05:13;3.65;;;2.70;;
80245;SDS011;69558;39.208;-77.226;2024-01-06T14:07:39;5.05;;;3.58;;
80245;SDS011;69558;39.208;-77.226;2024-01-06T14:10:10;4.15;;;2.60;;
80245;SDS011;69558;39.208;-77.226;2024-01-06T14:12:38;4.55;;;3.35;;
80245;SDS011;69558;39.208;-77.226;2024-01-06T14:15:04;4.88;;;3.33;;
80245;SDS011;69558;39.208;-77.226;2024-01-06T14:17:31;3.08;;;1.88;;
80245;SDS011;69558;39.208;-77.226;2024-01-06T14:19:59;3.80;;;2.33;;
80245;SDS011;69558;39.208;-77.226;2024-01-06T14:22:27;4.65;;;3.38;;
80245;SDS011;69558;39.208;-77.226;2024-01-06T14:25:06;3.92;;;2.97;;
80245;SDS011;69558;39.208;-77.226;2024-01-06T14:27:32;4.63;;;3.13;;
80245;SDS011;69558;39.208;-77.226;2024-01-06T14:29:59;3.45;;;2.70;;
80245;SDS011;69558;39.208;-77.226;2024-01-06T14:32:26;4.60;;;3.25;;
80245;SDS011;69558;39.208;-77.226;2024-01-06T14:34:52;4.35;;;3.42;;